sensor_id;sensor_type;location;lat;lon;timestamp;P1;durP1;ratioP1;P2;durP2;ratioP2
40781;SDS011;26493;51.938;7.626;2022-08-11T00:01:19;17.80;;;10.55;;
40781;SDS011;26493;51.938;7.626;2022-08-11T00:04:06;15.07;;;10.40;;
40781;SDS011;26493;51.938;7.626;2022-08-11T00:06:35;16.45;;;11.10;;
40781;SDS011;26493;51.938;7.626;2022-08-11T00:09:03;16.98;;;11.23;;
40781;SDS011;26493;51.938;7.626;2022-08-11T00:11:33;17.38;;;10.57;;
40781;SDS011;26493;51.938;7.626;2022-08-11T00:14:00;16.38;;;10.95;;
40781;SDS011;26493;51.938;7.626;2022-08-11T00:16:26;18.10;;;11.40;;
40781;SDS011;26493;51.938;7.626;2022-08-11T00:18:53;16.83;;;10.90;;
40781;SDS011;26493;51.938;7.626;2022-08-11T00:21:21;16.80;;;10.98;;
40781;SDS011;26493;51.938;7.626;2022-08-11T00:23:54;17.70;;;10.68;;
40781;SDS011;26493;51.938;7.626;2022-08-11T00:26:20;17.05;;;10.77;;
40781;SDS011;26493;51.938;7.626;2022-08-11T00:28:47;19.27;;;11.80;;
40781;SDS011;26493;51.938;7.626;2022-08-11T00:31:33;18.15;;;11.38;;
40781;SDS011;26493;51.938;7.626;2022-08-11T00:34:00;18.08;;;11.00;;
40781;SDS011;26493;51.938;7.626;2022-08-11T00:36:37;18.92;;;10.85;;
40781;SDS011;26493;51.938;7.626;2022-08-11T00:39:04;16.95;;;10.93;;
40781;SDS011;26493;51.938;7.626;2022-08-11T00:49:42;15.38;;;11.07;;
40781;SDS011;26493;51.938;7.626;2022-08-11T00:52:16;17.13;;;11.00;;
40781;SDS011;26493;51.938;7.626;2022-08-11T01:13:36;15.55;;;10.90;;
40781;SDS011;26493;51.938;7.626;2022-08-11T01:42:00;16.30;;;11.10;;
40781;SDS011;26493;51.938;7.626;2022-08-11T01:47:28;16.17;;;11.10;;
40781;SDS011;26493;51.938;7.626;2022-08-11T02:01:01;16.88;;;10.88;;
40781;SDS011;26493;51.938;7.626;2022-08-11T02:08:44;16.98;;;10.95;;
40781;SDS011;26493;51.938;7.626;2022-08-11T02:22:00;16.52;;;11.25;;
40781;SDS011;26493;51.938;7.626;2022-08-11T02:24:53;19.75;;;11.00;;
40781;SDS011;26493;51.938;7.626;2022-08-11T02:27:23;17.33;;;11.35;;
40781;SDS011;26493;51.938;7.626;2022-08-11T02:50:53;19.52;;;10.85;;
40781;SDS011;26493;51.938;7.626;2022-08-11T02:53:42;17.15;;;11.43;;
40781;SDS011;26493;51.938;7.626;2022-08-11T02:56:11;17.55;;;11.77;;
40781;SDS011;26493;51.938;7.626;2022-08-11T03:01:22;17.45;;;11.18;;
40781;SDS011;26493;51.938;7.626;2022-08-11T03:03:54;17.60;;;11.27;;
40781;SDS011;26493;51.938;7.626;2022-08-11T03:09:13;16.67;;;11.10;;
40781;SDS011;26493;51.938;7.626;2022-08-11T03:14:41;17.15;;;11.68;;
40781;SDS011;26493;51.938;7.626;2022-08-11T03:17:31;15.85;;;11.20;;
40781;SDS011;26493;51.938;7.626;2022-08-11T03:28:17;16.00;;;11.57;;
40781;SDS011;26493;51.938;7.626;2022-08-11T03:33:24;17.40;;;11.48;;
40781;SDS011;26493;51.938;7.626;2022-08-11T03:36:32;16.65;;;11.38;;
40781;SDS011;26493;51.938;7.626;2022-08-11T03:41:52;19.80;;;11.98;;
40781;SDS011;26493;51.938;7.626;2022-08-11T03:54:57;17.27;;;12.02;;
40781;SDS011;26493;51.938;7.626;2022-08-11T04:03:28;18.55;;;12.38;;
40781;SDS011;26493;51.938;7.626;2022-08-11T04:29:17;18.23;;;11.93;;
40781;SDS011;26493;51.938;7.626;2022-08-11T04:48:31;16.60;;;11.88;;
40781;SDS011;26493;51.938;7.626;2022-08-11T04:57:16;18.30;;;11.80;;
40781;SDS011;26493;51.938;7.626;2022-08-11T05:00:06;19.05;;;12.40;;
40781;SDS011;26493;51.938;7.626;2022-08-11T05:13:00;22.60;;;12.50;;
40781;SDS011;26493;51.938;7.626;2022-08-11T05:15:59;21.75;;;12.43;;
40781;SDS011;26493;51.938;7.626;2022-08-11T05:18:51;18.45;;;11.95;;
40781;SDS011;26493;51.938;7.626;2022-08-11T05:21:37;19.30;;;12.32;;
40781;SDS011;26493;51.938;7.626;2022-08-11T05:24:30;19.63;;;12.13;;
40781;SDS011;26493;51.938;7.626;2022-08-11T05:27:16;20.00;;;12.85;;
40781;SDS011;26493;51.938;7.626;2022-08-11T05:30:03;18.48;;;12.65;;
40781;SDS011;26493;51.938;7.626;2022-08-11T05:32:56;22.75;;;13.80;;
40781;SDS011;26493;51.938;7.626;2022-08-11T05:35:49;22.88;;;13.20;;
40781;SDS011;26493;51.938;7.626;2022-08-11T05:38:22;18.40;;;13.00;;
40781;SDS011;26493;51.938;7.626;2022-08-11T05:41:10;20.10;;;12.45;;
40781;SDS011;26493;51.938;7.626;2022-08-11T05:43:56;18.60;;;12.47;;
40781;SDS011;26493;51.938;7.626;2022-08-11T05:46:42;20.42;;;12.93;;
40781;SDS011;26493;51.938;7.626;2022-08-11T05:49:31;24.15;;;13.50;;
40781;SDS011;26493;51.938;7.626;2022-08-11T05:52:17;19.58;;;12.95;;
40781;SDS011;26493;51.938;7.626;2022-08-11T05:55:04;22.40;;;13.50;;
40781;SDS011;26493;51.938;7.626;2022-08-11T05:58:00;20.40;;;13.05;;
40781;SDS011;26493;51.938;7.626;2022-08-11T06:00:27;18.67;;;12.57;;
40781;SDS011;26493;51.938;7.626;2022-08-11T06:02:54;21.60;;;12.32;;
40781;SDS011;26493;51.938;7.626;2022-08-11T06:05:21;19.13;;;12.30;;
40781;SDS011;26493;51.938;7.626;2022-08-11T06:07:48;20.92;;;12.82;;
40781;SDS011;26493;51.938;7.626;2022-08-11T06:10:23;20.55;;;12.60;;
40781;SDS011;26493;51.938;7.626;2022-08-11T06:12:51;27.65;;;13.45;;
40781;SDS011;26493;51.938;7.626;2022-08-11T06:15:19;19.52;;;12.38;;
40781;SDS011;26493;51.938;7.626;2022-08-11T06:17:46;21.73;;;12.90;;
40781;SDS011;26493;51.938;7.626;2022-08-11T06:20:16;18.10;;;12.13;;
40781;SDS011;26493;51.938;7.626;2022-08-11T06:22:47;18.23;;;11.98;;
40781;SDS011;26493;51.938;7.626;2022-08-11T06:25:19;19.48;;;12.18;;
40781;SDS011;26493;51.938;7.626;2022-08-11T06:27:46;21.80;;;13.07;;
40781;SDS011;26493;51.938;7.626;2022-08-11T06:30:21;17.38;;;12.23;;
40781;SDS011;26493;51.938;7.626;2022-08-11T06:32:59;20.10;;;12.65;;
40781;SDS011;26493;51.938;7.626;2022-08-11T06:35:34;21.98;;;11.90;;
40781;SDS011;26493;51.938;7.626;2022-08-11T06:45:35;18.50;;;12.52;;
40781;SDS011;26493;51.938;7.626;2022-08-11T06:48:04;20.50;;;12.52;;
40781;SDS011;26493;51.938;7.626;2022-08-11T06:50:35;18.25;;;12.95;;
40781;SDS011;26493;51.938;7.626;2022-08-11T06:53:20;17.42;;;12.82;;
40781;SDS011;26493;51.938;7.626;2022-08-11T06:55:47;17.58;;;12.85;;
40781;SDS011;26493;51.938;7.626;2022-08-11T06:58:34;17.63;;;12.35;;
40781;SDS011;26493;51.938;7.626;2022-08-11T07:04:05;17.92;;;12.95;;
40781;SDS011;26493;51.938;7.626;2022-08-11T07:15:10;21.23;;;12.43;;
40781;SDS011;26493;51.938;7.626;2022-08-11T07:17:55;17.00;;;12.90;;
40781;SDS011;26493;51.938;7.626;2022-08-11T07:20:43;17.05;;;12.40;;
40781;SDS011;26493;51.938;7.626;2022-08-11T07:23:28;18.23;;;12.45;;
40781;SDS011;26493;51.938;7.626;2022-08-11T07:26:14;18.00;;;12.27;;
40781;SDS011;26493;51.938;7.626;2022-08-11T07:29:00;19.77;;;12.90;;
40781;SDS011;26493;51.938;7.626;2022-08-11T07:36:28;20.92;;;11.95;;
40781;SDS011;26493;51.938;7.626;2022-08-11T07:38:55;17.67;;;11.98;;
40781;SDS011;26493;51.938;7.626;2022-08-11T07:41:22;16.90;;;12.18;;
40781;SDS011;26493;51.938;7.626;2022-08-11T07:43:53;19.20;;;11.80;;
40781;SDS011;26493;51.938;7.626;2022-08-11T07:46:19;20.92;;;12.40;;
40781;SDS011;26493;51.938;7.626;2022-08-11T07:49:06;21.30;;;13.65;;
40781;SDS011;26493;51.938;7.626;2022-08-11T07:51:52;22.65;;;12.80;;
40781;SDS011;26493;51.938;7.626;2022-08-11T07:54:37;17.63;;;12.20;;
40781;SDS011;26493;51.938;7.626;2022-08-11T07:57:04;16.35;;;11.68;;
40781;SDS011;26493;51.938;7.626;2022-08-11T07:59:51;17.08;;;13.02;;
40781;SDS011;26493;51.938;7.626;2022-08-11T08:02:36;17.73;;;12.57;;
40781;SDS011;26493;51.938;7.626;2022-08-11T08:05:21;16.88;;;12.48;;
40781;SDS011;26493;51.938;7.626;2022-08-11T08:08:06;19.17;;;12.60;;
40781;SDS011;26493;51.938;7.626;2022-08-11T08:10:52;17.00;;;12.25;;
40781;SDS011;26493;51.938;7.626;2022-08-11T08:13:38;17.80;;;12.60;;
40781;SDS011;26493;51.938;7.626;2022-08-11T08:16:23;18.52;;;12.30;;
40781;SDS011;26493;51.938;7.626;2022-08-11T08:19:10;17.40;;;12.35;;
40781;SDS011;26493;51.938;7.626;2022-08-11T08:21:37;16.73;;;12.73;;
40781;SDS011;26493;51.938;7.626;2022-08-11T08:24:03;17.65;;;12.50;;
40781;SDS011;26493;51.938;7.626;2022-08-11T08:26:31;16.73;;;12.15;;
40781;SDS011;26493;51.938;7.626;2022-08-11T08:29:17;20.88;;;12.40;;
40781;SDS011;26493;51.938;7.626;2022-08-11T08:32:03;17.08;;;12.38;;
40781;SDS011;26493;51.938;7.626;2022-08-11T08:34:30;16.33;;;12.77;;
40781;SDS011;26493;51.938;7.626;2022-08-11T08:36:56;18.48;;;13.07;;
40781;SDS011;26493;51.938;7.626;2022-08-11T08:39:22;19.27;;;13.35;;
40781;SDS011;26493;51.938;7.626;2022-08-11T08:41:51;19.83;;;12.65;;
40781;SDS011;26493;51.938;7.626;2022-08-11T08:44:19;17.60;;;13.10;;
40781;SDS011;26493;51.938;7.626;2022-08-11T08:46:53;19.88;;;13.60;;
40781;SDS011;26493;51.938;7.626;2022-08-11T08:49:25;19.63;;;13.00;;
40781;SDS011;26493;51.938;7.626;2022-08-11T08:51:53;17.52;;;12.73;;
40781;SDS011;26493;51.938;7.626;2022-08-11T08:54:24;18.63;;;13.02;;
40781;SDS011;26493;51.938;7.626;2022-08-11T08:56:53;20.65;;;13.77;;
40781;SDS011;26493;51.938;7.626;2022-08-11T08:59:20;20.70;;;13.40;;
40781;SDS011;26493;51.938;7.626;2022-08-11T09:01:59;20.42;;;13.55;;
40781;SDS011;26493;51.938;7.626;2022-08-11T09:04:26;17.55;;;13.80;;
40781;SDS011;26493;51.938;7.626;2022-08-11T09:06:53;17.92;;;13.60;;
40781;SDS011;26493;51.938;7.626;2022-08-11T09:09:20;22.55;;;14.38;;
40781;SDS011;26493;51.938;7.626;2022-08-11T09:11:47;16.70;;;13.05;;
40781;SDS011;26493;51.938;7.626;2022-08-11T09:14:35;18.10;;;13.23;;
40781;SDS011;26493;51.938;7.626;2022-08-11T09:17:21;16.95;;;13.25;;
40781;SDS011;26493;51.938;7.626;2022-08-11T09:19:48;20.20;;;13.20;;
40781;SDS011;26493;51.938;7.626;2022-08-11T09:22:23;17.60;;;13.30;;
40781;SDS011;26493;51.938;7.626;2022-08-11T09:25:08;17.15;;;13.45;;
40781;SDS011;26493;51.938;7.626;2022-08-11T09:27:53;18.83;;;14.45;;
40781;SDS011;26493;51.938;7.626;2022-08-11T09:30:20;18.50;;;13.40;;
40781;SDS011;26493;51.938;7.626;2022-08-11T09:32:49;18.60;;;13.00;;
40781;SDS011;26493;51.938;7.626;2022-08-11T09:35:17;17.30;;;13.35;;
40781;SDS011;26493;51.938;7.626;2022-08-11T09:37:43;18.85;;;13.68;;
40781;SDS011;26493;51.938;7.626;2022-08-11T09:40:28;18.52;;;13.63;;
40781;SDS011;26493;51.938;7.626;2022-08-11T09:42:58;17.23;;;14.10;;
40781;SDS011;26493;51.938;7.626;2022-08-11T09:45:44;16.80;;;13.68;;
40781;SDS011;26493;51.938;7.626;2022-08-11T09:48:14;18.23;;;14.27;;
40781;SDS011;26493;51.938;7.626;2022-08-11T09:50:41;18.15;;;14.27;;
40781;SDS011;26493;51.938;7.626;2022-08-11T09:53:09;17.90;;;13.67;;
40781;SDS011;26493;51.938;7.626;2022-08-11T09:55:36;19.33;;;13.85;;
40781;SDS011;26493;51.938;7.626;2022-08-11T09:58:03;18.45;;;13.55;;
40781;SDS011;26493;51.938;7.626;2022-08-11T10:00:41;19.30;;;13.75;;
40781;SDS011;26493;51.938;7.626;2022-08-11T10:03:23;18.10;;;13.57;;
40781;SDS011;26493;51.938;7.626;2022-08-11T10:05:52;20.80;;;13.65;;
40781;SDS011;26493;51.938;7.626;2022-08-11T10:11:04;20.08;;;14.15;;
40781;SDS011;26493;51.938;7.626;2022-08-11T10:13:34;19.77;;;14.00;;
40781;SDS011;26493;51.938;7.626;2022-08-11T10:16:23;20.08;;;13.32;;
40781;SDS011;26493;51.938;7.626;2022-08-11T10:18:50;18.73;;;14.02;;
40781;SDS011;26493;51.938;7.626;2022-08-11T10:23:42;16.48;;;12.60;;
40781;SDS011;26493;51.938;7.626;2022-08-11T10:26:28;20.08;;;14.02;;
40781;SDS011;26493;51.938;7.626;2022-08-11T10:29:13;17.65;;;13.55;;
40781;SDS011;26493;51.938;7.626;2022-08-11T10:31:58;18.42;;;13.63;;
40781;SDS011;26493;51.938;7.626;2022-08-11T10:34:44;19.17;;;14.27;;
40781;SDS011;26493;51.938;7.626;2022-08-11T10:37:11;17.60;;;13.13;;
40781;SDS011;26493;51.938;7.626;2022-08-11T10:39:38;18.65;;;13.90;;
40781;SDS011;26493;51.938;7.626;2022-08-11T10:42:05;18.15;;;13.30;;
40781;SDS011;26493;51.938;7.626;2022-08-11T10:44:51;17.15;;;13.43;;
40781;SDS011;26493;51.938;7.626;2022-08-11T10:47:18;18.27;;;13.93;;
40781;SDS011;26493;51.938;7.626;2022-08-11T10:50:18;17.75;;;12.95;;
40781;SDS011;26493;51.938;7.626;2022-08-11T10:53:02;17.45;;;13.20;;
40781;SDS011;26493;51.938;7.626;2022-08-11T10:55:47;17.08;;;13.02;;
40781;SDS011;26493;51.938;7.626;2022-08-11T10:58:32;18.05;;;12.68;;
40781;SDS011;26493;51.938;7.626;2022-08-11T11:01:14;17.20;;;12.70;;
40781;SDS011;26493;51.938;7.626;2022-08-11T11:03:41;16.93;;;12.57;;
40781;SDS011;26493;51.938;7.626;2022-08-11T11:08:38;18.20;;;13.15;;
40781;SDS011;26493;51.938;7.626;2022-08-11T11:11:20;20.92;;;13.35;;
40781;SDS011;26493;51.938;7.626;2022-08-11T11:13:50;17.27;;;12.75;;
40781;SDS011;26493;51.938;7.626;2022-08-11T11:16:35;16.42;;;12.52;;
40781;SDS011;26493;51.938;7.626;2022-08-11T11:19:25;19.02;;;12.85;;
40781;SDS011;26493;51.938;7.626;2022-08-11T11:21:53;18.20;;;13.00;;
40781;SDS011;26493;51.938;7.626;2022-08-11T11:24:41;16.88;;;12.93;;
40781;SDS011;26493;51.938;7.626;2022-08-11T11:27:17;18.35;;;13.30;;
40781;SDS011;26493;51.938;7.626;2022-08-11T11:35:03;18.02;;;12.90;;
40781;SDS011;26493;51.938;7.626;2022-08-11T11:37:33;20.17;;;12.93;;
40781;SDS011;26493;51.938;7.626;2022-08-11T11:40:01;18.45;;;12.95;;
40781;SDS011;26493;51.938;7.626;2022-08-11T11:42:27;18.48;;;14.10;;
40781;SDS011;26493;51.938;7.626;2022-08-11T11:44:54;16.27;;;13.10;;
40781;SDS011;26493;51.938;7.626;2022-08-11T11:47:20;17.17;;;13.20;;
40781;SDS011;26493;51.938;7.626;2022-08-11T11:49:47;16.83;;;13.45;;
40781;SDS011;26493;51.938;7.626;2022-08-11T11:52:18;16.95;;;13.43;;
40781;SDS011;26493;51.938;7.626;2022-08-11T11:54:45;16.23;;;13.30;;
40781;SDS011;26493;51.938;7.626;2022-08-11T11:57:18;17.17;;;13.57;;
40781;SDS011;26493;51.938;7.626;2022-08-11T12:00:07;18.92;;;13.80;;
40781;SDS011;26493;51.938;7.626;2022-08-11T12:02:53;20.27;;;13.52;;
40781;SDS011;26493;51.938;7.626;2022-08-11T12:05:20;17.42;;;13.20;;
40781;SDS011;26493;51.938;7.626;2022-08-11T12:07:47;17.98;;;13.23;;
40781;SDS011;26493;51.938;7.626;2022-08-11T12:10:32;17.95;;;13.77;;
40781;SDS011;26493;51.938;7.626;2022-08-11T12:12:58;18.17;;;12.90;;
40781;SDS011;26493;51.938;7.626;2022-08-11T12:15:45;18.77;;;13.95;;
40781;SDS011;26493;51.938;7.626;2022-08-11T12:18:12;16.80;;;13.48;;
40781;SDS011;26493;51.938;7.626;2022-08-11T12:20:38;18.30;;;13.37;;
40781;SDS011;26493;51.938;7.626;2022-08-11T12:23:05;20.55;;;14.10;;
40781;SDS011;26493;51.938;7.626;2022-08-11T12:25:51;17.23;;;13.00;;
40781;SDS011;26493;51.938;7.626;2022-08-11T12:28:36;17.98;;;13.60;;
40781;SDS011;26493;51.938;7.626;2022-08-11T12:33:29;18.90;;;14.40;;
40781;SDS011;26493;51.938;7.626;2022-08-11T12:35:57;17.27;;;14.15;;
40781;SDS011;26493;51.938;7.626;2022-08-11T12:38:24;19.35;;;14.32;;
40781;SDS011;26493;51.938;7.626;2022-08-11T12:40:50;17.42;;;14.25;;
40781;SDS011;26493;51.938;7.626;2022-08-11T12:43:36;17.08;;;13.90;;
40781;SDS011;26493;51.938;7.626;2022-08-11T12:46:28;17.83;;;14.85;;
40781;SDS011;26493;51.938;7.626;2022-08-11T12:48:56;17.73;;;14.50;;
40781;SDS011;26493;51.938;7.626;2022-08-11T12:51:41;18.45;;;14.02;;
40781;SDS011;26493;51.938;7.626;2022-08-11T12:54:30;16.25;;;13.77;;
40781;SDS011;26493;51.938;7.626;2022-08-11T12:57:00;17.73;;;14.93;;
40781;SDS011;26493;51.938;7.626;2022-08-11T12:59:45;20.30;;;14.63;;
40781;SDS011;26493;51.938;7.626;2022-08-11T13:02:31;20.38;;;15.63;;
40781;SDS011;26493;51.938;7.626;2022-08-11T13:05:17;17.13;;;14.68;;
40781;SDS011;26493;51.938;7.626;2022-08-11T13:07:44;17.83;;;15.20;;
40781;SDS011;26493;51.938;7.626;2022-08-11T13:12:37;21.90;;;18.10;;
40781;SDS011;26493;51.938;7.626;2022-08-11T13:15:19;18.10;;;14.52;;
40781;SDS011;26493;51.938;7.626;2022-08-11T13:17:49;17.67;;;13.85;;
40781;SDS011;26493;51.938;7.626;2022-08-11T13:20:20;18.30;;;13.80;;
40781;SDS011;26493;51.938;7.626;2022-08-11T13:22:50;17.63;;;14.73;;
40781;SDS011;26493;51.938;7.626;2022-08-11T13:25:18;18.20;;;14.15;;
40781;SDS011;26493;51.938;7.626;2022-08-11T13:27:46;18.25;;;14.90;;
40781;SDS011;26493;51.938;7.626;2022-08-11T13:30:15;16.98;;;14.57;;
40781;SDS011;26493;51.938;7.626;2022-08-11T13:33:01;18.95;;;14.60;;
40781;SDS011;26493;51.938;7.626;2022-08-11T13:37:54;16.63;;;14.18;;
40781;SDS011;26493;51.938;7.626;2022-08-11T13:40:20;17.23;;;14.60;;
40781;SDS011;26493;51.938;7.626;2022-08-11T13:42:48;18.40;;;14.23;;
40781;SDS011;26493;51.938;7.626;2022-08-11T13:47:41;17.90;;;15.07;;
40781;SDS011;26493;51.938;7.626;2022-08-11T13:50:08;17.77;;;14.30;;
40781;SDS011;26493;51.938;7.626;2022-08-11T13:52:36;18.27;;;13.48;;
40781;SDS011;26493;51.938;7.626;2022-08-11T13:55:03;17.27;;;13.48;;
40781;SDS011;26493;51.938;7.626;2022-08-11T13:57:30;17.77;;;14.00;;
40781;SDS011;26493;51.938;7.626;2022-08-11T13:59:58;17.15;;;14.45;;
40781;SDS011;26493;51.938;7.626;2022-08-11T14:02:34;19.15;;;15.15;;
40781;SDS011;26493;51.938;7.626;2022-08-11T14:07:31;18.98;;;13.43;;
40781;SDS011;26493;51.938;7.626;2022-08-11T14:09:59;20.55;;;14.18;;
40781;SDS011;26493;51.938;7.626;2022-08-11T14:12:27;19.20;;;14.93;;
40781;SDS011;26493;51.938;7.626;2022-08-11T14:17:43;17.00;;;14.65;;
40781;SDS011;26493;51.938;7.626;2022-08-11T14:22:37;17.13;;;14.68;;
40781;SDS011;26493;51.938;7.626;2022-08-11T14:25:05;18.67;;;14.50;;
40781;SDS011;26493;51.938;7.626;2022-08-11T14:27:31;17.90;;;13.70;;
40781;SDS011;26493;51.938;7.626;2022-08-11T14:29:58;18.00;;;15.00;;
40781;SDS011;26493;51.938;7.626;2022-08-11T14:32:25;19.20;;;14.52;;
40781;SDS011;26493;51.938;7.626;2022-08-11T14:34:51;17.35;;;14.25;;
40781;SDS011;26493;51.938;7.626;2022-08-11T14:37:19;19.52;;;14.43;;
40781;SDS011;26493;51.938;7.626;2022-08-11T14:42:13;19.63;;;13.82;;
40781;SDS011;26493;51.938;7.626;2022-08-11T14:45:02;19.70;;;14.35;;
40781;SDS011;26493;51.938;7.626;2022-08-11T14:47:49;19.45;;;14.60;;
40781;SDS011;26493;51.938;7.626;2022-08-11T14:50:19;16.60;;;13.90;;
40781;SDS011;26493;51.938;7.626;2022-08-11T14:53:00;17.40;;;14.30;;
40781;SDS011;26493;51.938;7.626;2022-08-11T14:55:29;18.30;;;14.50;;
40781;SDS011;26493;51.938;7.626;2022-08-11T14:58:16;17.20;;;14.07;;
40781;SDS011;26493;51.938;7.626;2022-08-11T15:00:45;17.55;;;14.85;;
40781;SDS011;26493;51.938;7.626;2022-08-11T15:03:12;18.92;;;14.73;;
40781;SDS011;26493;51.938;7.626;2022-08-11T15:05:49;18.77;;;14.90;;
40781;SDS011;26493;51.938;7.626;2022-08-11T15:08:16;19.20;;;14.32;;
40781;SDS011;26493;51.938;7.626;2022-08-11T15:10:43;18.48;;;16.48;;
40781;SDS011;26493;51.938;7.626;2022-08-11T15:13:09;16.42;;;14.27;;
40781;SDS011;26493;51.938;7.626;2022-08-11T15:15:37;16.80;;;14.70;;
40781;SDS011;26493;51.938;7.626;2022-08-11T15:18:24;17.73;;;15.27;;
40781;SDS011;26493;51.938;7.626;2022-08-11T15:20:50;18.35;;;15.32;;
40781;SDS011;26493;51.938;7.626;2022-08-11T15:23:37;27.08;;;15.68;;
40781;SDS011;26493;51.938;7.626;2022-08-11T15:29:13;17.13;;;14.65;;
40781;SDS011;26493;51.938;7.626;2022-08-11T15:31:58;18.27;;;15.45;;
40781;SDS011;26493;51.938;7.626;2022-08-11T15:34:48;17.80;;;14.15;;
40781;SDS011;26493;51.938;7.626;2022-08-11T15:37:35;20.42;;;17.48;;
40781;SDS011;26493;51.938;7.626;2022-08-11T15:45:34;20.13;;;14.77;;
40781;SDS011;26493;51.938;7.626;2022-08-11T15:51:15;17.43;;;14.10;;
40781;SDS011;26493;51.938;7.626;2022-08-11T15:53:48;17.85;;;13.80;;
40781;SDS011;26493;51.938;7.626;2022-08-11T15:56:15;17.30;;;14.20;;
40781;SDS011;26493;51.938;7.626;2022-08-11T15:58:45;16.77;;;14.52;;
40781;SDS011;26493;51.938;7.626;2022-08-11T16:01:30;18.77;;;14.88;;
40781;SDS011;26493;51.938;7.626;2022-08-11T16:04:17;17.50;;;14.93;;
40781;SDS011;26493;51.938;7.626;2022-08-11T16:07:05;19.08;;;14.80;;
40781;SDS011;26493;51.938;7.626;2022-08-11T16:09:40;17.10;;;14.20;;
40781;SDS011;26493;51.938;7.626;2022-08-11T16:12:08;18.75;;;14.25;;
40781;SDS011;26493;51.938;7.626;2022-08-11T16:14:38;17.98;;;13.77;;
40781;SDS011;26493;51.938;7.626;2022-08-11T16:17:25;17.67;;;13.95;;
40781;SDS011;26493;51.938;7.626;2022-08-11T16:19:52;16.77;;;14.60;;
40781;SDS011;26493;51.938;7.626;2022-08-11T16:22:21;18.70;;;14.50;;
40781;SDS011;26493;51.938;7.626;2022-08-11T16:24:57;20.63;;;13.77;;
40781;SDS011;26493;51.938;7.626;2022-08-11T16:27:23;17.73;;;14.05;;
40781;SDS011;26493;51.938;7.626;2022-08-11T16:29:50;16.70;;;14.35;;
40781;SDS011;26493;51.938;7.626;2022-08-11T16:32:20;17.33;;;14.18;;
40781;SDS011;26493;51.938;7.626;2022-08-11T16:34:52;17.08;;;15.07;;
40781;SDS011;26493;51.938;7.626;2022-08-11T16:37:38;18.02;;;14.68;;
40781;SDS011;26493;51.938;7.626;2022-08-11T16:40:23;18.52;;;14.32;;
40781;SDS011;26493;51.938;7.626;2022-08-11T16:42:50;17.52;;;14.45;;
40781;SDS011;26493;51.938;7.626;2022-08-11T16:45:35;20.52;;;14.38;;
40781;SDS011;26493;51.938;7.626;2022-08-11T16:48:21;18.42;;;15.70;;
40781;SDS011;26493;51.938;7.626;2022-08-11T16:50:48;18.58;;;14.65;;
40781;SDS011;26493;51.938;7.626;2022-08-11T16:53:14;18.77;;;15.85;;
40781;SDS011;26493;51.938;7.626;2022-08-11T16:55:44;20.35;;;18.15;;
40781;SDS011;26493;51.938;7.626;2022-08-11T16:58:12;17.92;;;14.10;;
40781;SDS011;26493;51.938;7.626;2022-08-11T17:00:57;19.38;;;16.20;;
40781;SDS011;26493;51.938;7.626;2022-08-11T17:03:24;17.40;;;14.20;;
40781;SDS011;26493;51.938;7.626;2022-08-11T17:06:09;18.67;;;14.85;;
40781;SDS011;26493;51.938;7.626;2022-08-11T17:08:54;17.83;;;14.15;;
40781;SDS011;26493;51.938;7.626;2022-08-11T17:11:46;18.95;;;14.20;;
40781;SDS011;26493;51.938;7.626;2022-08-11T17:14:39;17.42;;;13.65;;
40781;SDS011;26493;51.938;7.626;2022-08-11T17:17:12;17.05;;;14.40;;
40781;SDS011;26493;51.938;7.626;2022-08-11T17:19:41;17.35;;;13.90;;
40781;SDS011;26493;51.938;7.626;2022-08-11T17:22:10;18.75;;;14.45;;
40781;SDS011;26493;51.938;7.626;2022-08-11T17:24:54;17.77;;;14.60;;
40781;SDS011;26493;51.938;7.626;2022-08-11T17:27:21;19.57;;;14.30;;
40781;SDS011;26493;51.938;7.626;2022-08-11T17:29:55;19.27;;;14.20;;
40781;SDS011;26493;51.938;7.626;2022-08-11T17:35:08;16.90;;;14.15;;
40781;SDS011;26493;51.938;7.626;2022-08-11T17:37:54;18.02;;;13.85;;
40781;SDS011;26493;51.938;7.626;2022-08-11T17:40:21;18.80;;;13.88;;
40781;SDS011;26493;51.938;7.626;2022-08-11T17:42:51;17.48;;;14.43;;
40781;SDS011;26493;51.938;7.626;2022-08-11T17:45:40;16.90;;;13.88;;
40781;SDS011;26493;51.938;7.626;2022-08-11T17:48:26;18.33;;;13.93;;
40781;SDS011;26493;51.938;7.626;2022-08-11T17:51:03;17.25;;;14.13;;
40781;SDS011;26493;51.938;7.626;2022-08-11T17:53:35;19.65;;;14.43;;
40781;SDS011;26493;51.938;7.626;2022-08-11T17:56:21;18.67;;;14.25;;
40781;SDS011;26493;51.938;7.626;2022-08-11T17:59:06;19.45;;;16.00;;
40781;SDS011;26493;51.938;7.626;2022-08-11T18:01:53;17.50;;;14.10;;
40781;SDS011;26493;51.938;7.626;2022-08-11T18:06:46;20.83;;;14.50;;
40781;SDS011;26493;51.938;7.626;2022-08-11T18:09:16;19.17;;;14.27;;
40781;SDS011;26493;51.938;7.626;2022-08-11T18:12:03;18.42;;;14.45;;
40781;SDS011;26493;51.938;7.626;2022-08-11T18:14:50;17.58;;;14.32;;
40781;SDS011;26493;51.938;7.626;2022-08-11T18:17:35;17.77;;;14.85;;
40781;SDS011;26493;51.938;7.626;2022-08-11T18:20:20;17.98;;;14.05;;
40781;SDS011;26493;51.938;7.626;2022-08-11T18:23:11;19.48;;;14.68;;
40781;SDS011;26493;51.938;7.626;2022-08-11T18:25:58;18.77;;;14.68;;
40781;SDS011;26493;51.938;7.626;2022-08-11T18:28:45;23.10;;;14.45;;
40781;SDS011;26493;51.938;7.626;2022-08-11T18:31:34;17.42;;;14.45;;
40781;SDS011;26493;51.938;7.626;2022-08-11T18:34:24;20.02;;;14.75;;
40781;SDS011;26493;51.938;7.626;2022-08-11T18:37:15;20.10;;;14.35;;
40781;SDS011;26493;51.938;7.626;2022-08-11T18:40:13;20.45;;;15.27;;
40781;SDS011;26493;51.938;7.626;2022-08-11T18:45:45;17.35;;;13.73;;
40781;SDS011;26493;51.938;7.626;2022-08-11T18:48:30;17.60;;;13.35;;
40781;SDS011;26493;51.938;7.626;2022-08-11T18:51:15;16.88;;;13.88;;
40781;SDS011;26493;51.938;7.626;2022-08-11T18:54:01;17.77;;;14.00;;
40781;SDS011;26493;51.938;7.626;2022-08-11T18:56:47;18.67;;;13.63;;
40781;SDS011;26493;51.938;7.626;2022-08-11T18:59:34;16.95;;;13.35;;
40781;SDS011;26493;51.938;7.626;2022-08-11T19:02:22;18.17;;;13.65;;
40781;SDS011;26493;51.938;7.626;2022-08-11T19:05:07;16.65;;;13.98;;
40781;SDS011;26493;51.938;7.626;2022-08-11T19:07:54;16.95;;;13.80;;
40781;SDS011;26493;51.938;7.626;2022-08-11T19:10:39;18.15;;;14.27;;
40781;SDS011;26493;51.938;7.626;2022-08-11T19:13:24;17.88;;;13.90;;
40781;SDS011;26493;51.938;7.626;2022-08-11T19:16:10;17.67;;;13.80;;
40781;SDS011;26493;51.938;7.626;2022-08-11T19:18:54;19.70;;;13.55;;
40781;SDS011;26493;51.938;7.626;2022-08-11T19:21:40;17.23;;;13.10;;
40781;SDS011;26493;51.938;7.626;2022-08-11T19:24:25;17.77;;;13.85;;
40781;SDS011;26493;51.938;7.626;2022-08-11T19:27:11;18.88;;;12.82;;
40781;SDS011;26493;51.938;7.626;2022-08-11T19:29:57;17.05;;;12.60;;
40781;SDS011;26493;51.938;7.626;2022-08-11T19:32:43;18.85;;;13.18;;
40781;SDS011;26493;51.938;7.626;2022-08-11T19:35:28;18.83;;;13.30;;
40781;SDS011;26493;51.938;7.626;2022-08-11T19:38:14;21.88;;;13.30;;
40781;SDS011;26493;51.938;7.626;2022-08-11T19:40:59;18.73;;;13.93;;
40781;SDS011;26493;51.938;7.626;2022-08-11T19:43:45;20.17;;;14.23;;
40781;SDS011;26493;51.938;7.626;2022-08-11T19:46:30;20.60;;;13.30;;
40781;SDS011;26493;51.938;7.626;2022-08-11T19:49:15;16.08;;;12.35;;